Airfield :
LOGIN :

Register | Disclaimer

   EN    FR    IT 

 










Legend :    VFR   Marginal VFR   IFR   Intensive IFR   Very Intensive IFR
Visi :
Ceiling :
>= 8 km
>= 3000ft
5 to 8 km
1000 to 3000 ft
1500m to 5 km
500 to 1000 ft
800 to 1500m
200 to 500 ft
< 800m
< 200 ft
Symbols :   Thunderstorms  Fog  Heavy snow  Heavy precipitations  Wind > 20 kt
SIGMETs :     Misc.  Thunderstorms  Icing  Turbulence  Mountain Waves  Volcanic Ashes






- Airport Elevation : 1071 ft
- IATA code : LWO


UKLL - L'viv

CURRENT METAR :
  • 021330Z 26005MPS 230V290 CAVOK 11/M09 Q1011 R31/CLRD// NOSIG

EXPIRED METARs :
  • 021300Z 25006MPS 210V290 CAVOK 11/M09 Q1011 R31/CLRD// NOSIG
  • 021230Z 26004MPS 200V330 CAVOK 11/M09 Q1012 R31/D NOSIG
  • 021200Z 26006MPS 230V330 CAVOK 11/M08 Q1012 R31/D NOSIG
  • 021130Z 27006MPS 240V300 CAVOK 10/M09 Q1013 R31/D NOSIG
  • 021100Z 26005MPS 220V300 CAVOK 10/M07 Q1013 R31/CLRD// NOSIG

TAF TAF UKLL
Valid from the 02 at 12:00 until the 03 at 12:00 UTC


021103Z 0212/0312 26005G12MPS 9999 SCT030 TX11/0312Z TNM01/0304Z
BECMG 0217/0218 20003MPS 3000 BR SCT007
BECMG 0306/0307 25007G13MPS 9999 NSW SCT030



MET'MAP, your aeronautical weather chart ! - Copyright ORBIFLY December 2007 - Disclaimer

ORBIFLY MET'MAP TEAM :

Programming & Development : Alexandra Zaïnal
Concept & original design : Baudouin d'Aumeries
Assistance for programming : Marc-Olivier Méhu
Technical & hardware support : Manuel Goepfert

Contact : metmap@orbifly.com




SOURCES & CREDITS :

   NOAA